Time;durP1;ratioP1;P1;durP2;ratioP2;P2;SDS_P1;SDS_P2;PMS_P1;PMS_P2;Temp;Humidity;BMP_temperature;BMP_pressure;BME280_temperature;BME280_humidity;BME280_pressure;Samples;Min_cycle;Max_cycle;Signal;HPM_P1;HPM_P2
2021/12/05 00:21:52;;;;;;;17.55;5.78;;;3.60;99.90;;;;;;4955282;29;20047;-77
2021/12/05 00:24:21;;;;;;;14.73;5.72;;;3.60;99.90;;;;;;4954821;29;20051;-78
2021/12/05 00:26:52;;;;;;;18.50;5.47;;;3.60;99.90;;;;;;4936814;29;20090;-78
2021/12/05 00:29:27;;;;;;;16.50;5.60;;;3.60;99.90;;;;;;4954987;29;20105;-79
2021/12/05 00:34:57;;;;;;;20.08;6.00;;;3.60;99.90;;;;;;4954807;29;20388;-78
2021/12/05 00:43:29;;;;;;;13.80;5.57;;;3.60;99.90;;;;;;4954376;29;20114;-78
2021/12/05 01:04:38;;;;;;;19.42;6.22;;;3.60;99.90;;;;;;4953926;29;20043;-79
2021/12/05 01:12:41;;;;;;;21.38;6.53;;;3.60;99.90;;;;;;4953990;29;20058;-79
2021/12/05 01:15:14;;;;;;;12.68;6.05;;;3.60;99.90;;;;;;4954211;29;20502;-78
2021/12/05 01:18:04;;;;;;;14.10;5.93;;;3.60;99.90;;;;;;4937316;29;20074;-78
2021/12/05 01:20:35;;;;;;;14.18;5.80;;;3.60;99.90;;;;;;4953853;29;20036;-79
2021/12/05 01:23:09;;;;;;;16.33;6.55;;;3.60;99.90;;;;;;4953743;28;20078;-79
2021/12/05 01:25:58;;;;;;;12.95;6.07;;;3.60;99.90;;;;;;4937069;29;20163;-79
2021/12/05 01:31:12;;;;;;;17.77;6.30;;;3.60;99.90;;;;;;4936679;29;20114;-79
2021/12/05 01:33:56;;;;;;;16.52;6.50;;;3.60;99.90;;;;;;4953976;29;20069;-79
2021/12/05 01:39:12;;;;;;;15.90;6.30;;;3.60;99.90;;;;;;4953750;29;20329;-78
2021/12/05 01:55:19;;;;;;;14.15;6.45;;;3.60;99.90;;;;;;4953505;29;20058;-78
2021/12/05 02:08:59;;;;;;;18.40;7.40;;;3.60;99.90;;;;;;4954115;28;20503;-78
2021/12/05 02:41:56;;;;;;;14.75;6.38;;;3.60;99.90;;;;;;4887994;29;20060;-78
2021/12/05 02:44:24;;;;;;;25.58;7.28;;;3.60;99.90;;;;;;4885649;29;20517;-79
2021/12/05 02:47:14;;;;;;;14.48;6.72;;;3.60;99.90;;;;;;4869580;29;20435;-78
2021/12/05 02:49:44;;;;;;;13.45;6.80;;;3.60;99.90;;;;;;4882607;29;20036;-78
2021/12/05 02:52:18;;;;;;;17.65;7.13;;;3.60;99.90;;;;;;4869752;29;20068;-78
2021/12/05 02:54:50;;;;;;;20.13;6.95;;;3.60;99.90;;;;;;4885603;29;20437;-79
2021/12/05 02:57:25;;;;;;;21.55;7.13;;;3.60;99.90;;;;;;4885490;29;20433;-79
2021/12/05 02:59:55;;;;;;;15.65;6.72;;;3.60;99.90;;;;;;4878083;29;20436;-79
2021/12/05 03:02:26;;;;;;;15.82;6.15;;;3.60;99.90;;;;;;4877847;29;20698;-79
2021/12/05 03:04:55;;;;;;;18.48;6.85;;;4.30;99.90;;;;;;4929113;29;20422;-77
2021/12/05 03:07:26;;;;;;;18.50;7.20;;;3.70;99.90;;;;;;4955963;28;20459;-79
2021/12/05 03:09:52;;;;;;;15.13;6.32;;;3.70;99.90;;;;;;4963537;28;20090;-77
2021/12/05 03:12:19;;;;;;;19.15;7.28;;;3.70;99.90;;;;;;4965875;28;20573;-78
2021/12/05 03:14:50;;;;;;;19.70;7.75;;;3.70;99.90;;;;;;4966583;28;20376;-79
2021/12/05 03:17:16;;;;;;;12.10;6.80;;;3.70;99.90;;;;;;4946196;28;20070;-78
2021/12/05 03:19:42;;;;;;;17.30;7.32;;;3.70;99.90;;;;;;4963509;28;20036;-78
2021/12/05 03:22:07;;;;;;;20.65;7.85;;;3.70;99.90;;;;;;4947140;28;20055;-77
2021/12/05 03:24:34;;;;;;;27.33;9.07;;;3.70;99.90;;;;;;4966732;28;20050;-78
2021/12/05 03:27:00;;;;;;;16.00;8.18;;;3.70;99.90;;;;;;4947916;28;20061;-78
2021/12/05 03:29:26;;;;;;;22.55;8.85;;;3.70;99.90;;;;;;4966467;28;20133;-78
2021/12/05 03:31:54;;;;;;;21.50;8.70;;;3.70;99.90;;;;;;4967748;28;20047;-78
2021/12/05 03:34:21;;;;;;;21.05;8.68;;;3.70;99.90;;;;;;4963159;28;20074;-79
2021/12/05 03:36:51;;;;;;;19.60;9.30;;;3.70;99.90;;;;;;4946018;29;20094;-78
2021/12/05 03:39:18;;;;;;;25.88;8.65;;;3.60;99.90;;;;;;4964267;28;20073;-78
2021/12/05 03:41:44;;;;;;;19.23;8.73;;;3.60;99.90;;;;;;4948647;28;20138;-78
2021/12/05 03:44:13;;;;;;;23.92;9.40;;;3.60;99.90;;;;;;4965355;28;20394;-79
2021/12/05 03:46:40;;;;;;;20.83;9.85;;;3.60;99.90;;;;;;4962818;28;20483;-78
2021/12/05 03:49:09;;;;;;;24.50;9.90;;;3.60;99.90;;;;;;4945128;29;20066;-78
2021/12/05 03:51:38;;;;;;;18.73;9.48;;;3.50;99.90;;;;;;4938329;29;20051;-78
2021/12/05 03:54:06;;;;;;;19.25;9.38;;;3.50;99.90;;;;;;4945332;29;20062;-78
2021/12/05 03:56:33;;;;;;;36.63;10.80;;;3.50;99.90;;;;;;4947966;28;20486;-78
2021/12/05 03:58:58;;;;;;;27.42;11.15;;;3.50;99.90;;;;;;4966013;28;20047;-78
2021/12/05 04:01:25;;;;;;;28.48;10.27;;;3.50;99.90;;;;;;4946460;28;20442;-79
2021/12/05 04:03:52;;;;;;;28.45;9.48;;;3.50;99.90;;;;;;4962519;28;20051;-78
2021/12/05 04:06:20;;;;;;;28.48;10.68;;;3.50;99.90;;;;;;4963030;28;20054;-78
2021/12/05 04:08:46;;;;;;;21.20;9.85;;;3.50;99.90;;;;;;4944408;29;20482;-78
2021/12/05 04:11:29;;;;;;;21.75;10.55;;;3.50;99.90;;;;;;4944589;29;20079;-79
2021/12/05 04:13:55;;;;;;;29.58;11.77;;;3.50;99.90;;;;;;4957058;28;20055;-78
2021/12/05 04:16:21;;;;;;;30.42;11.52;;;3.50;99.90;;;;;;4962621;28;20046;-77
2021/12/05 04:18:48;;;;;;;35.67;11.80;;;3.50;99.90;;;;;;4965366;28;20478;-77
2021/12/05 04:21:17;;;;;;;28.02;11.20;;;3.50;99.90;;;;;;4965537;28;20039;-78
2021/12/05 04:23:44;;;;;;;31.40;11.88;;;3.50;99.90;;;;;;4962060;28;20050;-78
2021/12/05 04:26:10;;;;;;;32.50;13.07;;;4.10;99.90;;;;;;4962374;28;20039;-77
2021/12/05 04:28:38;;;;;;;34.38;11.90;;;3.50;99.90;;;;;;4963834;28;20062;-77
2021/12/05 04:31:07;;;;;;;27.35;11.90;;;3.50;99.90;;;;;;4965439;28;20047;-77
2021/12/05 04:33:34;;;;;;;25.80;10.80;;;3.50;99.90;;;;;;4963434;28;20047;-77
2021/12/05 04:35:59;;;;;;;29.65;11.95;;;3.50;99.90;;;;;;4944442;29;20083;-78
2021/12/05 04:38:26;;;;;;;27.38;12.30;;;3.50;99.90;;;;;;4944605;28;20050;-77
2021/12/05 04:40:53;;;;;;;25.80;11.75;;;3.50;99.90;;;;;;4965214;28;20114;-78
2021/12/05 04:43:18;;;;;;;29.17;12.43;;;3.50;99.90;;;;;;4965345;28;20047;-78
2021/12/05 04:45:44;;;;;;;26.60;12.65;;;3.50;99.90;;;;;;4945008;28;21453;-79
2021/12/05 04:48:11;;;;;;;29.95;11.23;;;3.50;99.90;;;;;;4962008;28;20043;-78
2021/12/05 04:50:38;;;;;;;28.90;12.05;;;3.50;99.90;;;;;;4968100;28;20493;-77
2021/12/05 04:53:05;;;;;;;26.80;11.20;;;3.50;99.90;;;;;;4944370;29;20062;-78
2021/12/05 04:55:31;;;;;;;30.02;12.43;;;3.50;99.90;;;;;;4961295;28;20542;-77
2021/12/05 04:57:57;;;;;;;32.47;12.95;;;3.40;99.90;;;;;;4943085;28;20135;-78
2021/12/05 05:00:31;;;;;;;26.88;11.73;;;3.40;99.90;;;;;;4944306;29;20083;-79
2021/12/05 05:02:57;;;;;;;27.75;12.50;;;3.40;99.90;;;;;;4961520;28;20074;-78
2021/12/05 05:05:26;;;;;;;26.65;11.43;;;3.40;99.90;;;;;;4943907;29;20483;-78
2021/12/05 05:07:53;;;;;;;26.90;10.63;;;3.40;99.90;;;;;;4963316;28;20736;-78
2021/12/05 05:10:28;;;;;;;22.77;10.93;;;3.40;99.90;;;;;;4930302;28;20050;-78
2021/12/05 05:12:55;;;;;;;23.70;11.20;;;3.30;99.90;;;;;;4944463;28;20059;-78
2021/12/05 05:15:26;;;;;;;28.33;11.23;;;3.40;99.90;;;;;;4961405;28;20119;-78
2021/12/05 05:17:53;;;;;;;29.73;11.63;;;3.30;99.90;;;;;;4962947;28;20043;-77
2021/12/05 05:23:22;;;;;;;27.20;10.93;;;3.30;99.90;;;;;;4944917;28;20200;-77
2021/12/05 05:47:11;;;;;;;25.95;8.35;;;3.20;99.90;;;;;;4962586;28;20390;-78
2021/12/05 05:49:54;;;;;;;23.17;9.35;;;3.20;99.90;;;;;;4960847;28;20051;-78
2021/12/05 05:52:20;;;;;;;21.50;8.32;;;3.10;99.90;;;;;;4957029;28;20105;-77
2021/12/05 05:54:48;;;;;;;28.35;8.43;;;3.10;99.90;;;;;;4964281;28;20046;-79
2021/12/05 06:00:31;;;;;;;24.20;9.15;;;3.10;99.90;;;;;;4882502;29;20139;-76
2021/12/05 06:05:41;;;;;;;28.02;9.13;;;3.00;99.90;;;;;;4885863;29;20048;-77
2021/12/05 06:08:07;;;;;;;27.55;8.32;;;3.00;99.90;;;;;;4883922;29;20064;-77
2021/12/05 06:10:33;;;;;;;28.42;9.13;;;3.00;99.90;;;;;;4870605;29;20061;-78
2021/12/05 06:12:59;;;;;;;24.95;7.80;;;3.00;99.90;;;;;;4877358;29;20053;-78
2021/12/05 06:15:27;;;;;;;22.50;7.82;;;3.00;99.90;;;;;;4886245;29;20197;-78
2021/12/05 06:17:54;;;;;;;24.58;8.00;;;2.90;99.90;;;;;;4886155;29;20049;-78
2021/12/05 06:20:25;;;;;;;27.75;7.93;;;2.90;99.90;;;;;;4881049;29;20152;-78
2021/12/05 06:22:52;;;;;;;18.73;8.00;;;2.90;99.90;;;;;;4888950;29;20040;-77
2021/12/05 06:25:22;;;;;;;16.38;7.80;;;2.90;99.90;;;;;;4886404;29;20124;-77
2021/12/05 06:27:49;;;;;;;24.02;7.18;;;2.80;99.90;;;;;;4886014;29;20084;-77
2021/12/05 06:30:29;;;;;;;29.85;8.50;;;2.80;99.90;;;;;;4887622;29;20535;-78
2021/12/05 06:41:05;;;;;;;22.08;7.15;;;2.70;99.90;;;;;;4950032;28;20576;-77
2021/12/05 06:46:12;;;;;;;20.30;7.00;;;2.80;99.90;;;;;;4964117;28;20050;-78
2021/12/05 06:48:42;;;;;;;21.10;7.00;;;2.70;99.90;;;;;;4961944;28;20122;-77
2021/12/05 06:51:09;;;;;;;19.13;7.20;;;2.80;99.90;;;;;;4963733;28;20058;-77
2021/12/05 06:53:35;;;;;;;24.77;7.80;;;2.70;99.90;;;;;;4941735;28;20053;-78
2021/12/05 06:56:01;;;;;;;22.60;6.85;;;2.80;99.90;;;;;;4967163;28;20050;-77
2021/12/05 06:58:27;;;;;;;14.85;6.60;;;2.80;99.90;;;;;;4965932;28;20049;-78
2021/12/05 07:00:52;;;;;;;16.63;6.82;;;2.70;99.90;;;;;;4967016;28;20042;-78
2021/12/05 07:03:18;;;;;;;23.77;7.22;;;2.70;99.90;;;;;;4945813;28;20062;-78
2021/12/05 07:08:13;;;;;;;22.15;6.50;;;2.70;99.90;;;;;;4964021;28;20388;-77
2021/12/05 07:16:04;;;;;;;25.40;7.40;;;2.80;99.90;;;;;;4888430;29;20088;-77
2021/12/05 07:26:13;;;;;;;22.90;6.75;;;2.80;99.90;;;;;;4888206;29;20592;-78
2021/12/05 07:42:26;;;;;;;23.20;7.05;;;3.20;99.90;;;;;;4884688;29;20056;-77
2021/12/05 07:44:53;;;;;;;30.25;8.32;;;2.80;99.90;;;;;;4887606;29;20136;-78
2021/12/05 07:47:22;;;;;;;26.33;8.23;;;2.80;99.90;;;;;;4887784;29;20044;-78
2021/12/05 07:49:48;;;;;;;23.17;7.95;;;2.80;99.90;;;;;;4901121;28;20098;-77
2021/12/05 07:52:19;;;;;;;22.05;7.22;;;2.80;99.90;;;;;;4963046;28;20482;-77
2021/12/05 07:54:51;;;;;;;30.77;7.53;;;2.80;99.90;;;;;;4964464;28;20051;-77
2021/12/05 07:57:25;;;;;;;22.00;7.50;;;2.80;99.90;;;;;;4966445;28;20050;-77
2021/12/05 08:16:24;;;;;;;23.73;8.68;;;3.50;99.90;;;;;;4868327;29;20105;-77
2021/12/05 08:18:49;;;;;;;21.25;8.43;;;2.90;99.90;;;;;;4883835;29;20486;-78
2021/12/05 08:21:15;;;;;;;24.10;9.63;;;3.40;99.90;;;;;;4865513;29;20084;-77
2021/12/05 08:23:41;;;;;;;27.17;9.10;;;2.90;99.90;;;;;;4886501;29;20051;-77
2021/12/05 08:26:10;;;;;;;26.40;9.73;;;3.00;99.90;;;;;;4876458;29;20060;-78
2021/12/05 08:31:30;;;;;;;21.20;8.75;;;3.70;99.90;;;;;;4876771;29;20087;-78
2021/12/05 09:24:41;;;;;;;24.35;10.48;;;3.50;99.90;;;;;;4929115;29;20059;-76
2021/12/05 10:02:43;;;;;;;25.55;11.43;;;3.80;99.90;;;;;;4873693;29;20093;-78
2021/12/05 10:16:02;;;;;;;28.33;11.65;;;3.80;99.90;;;;;;4819201;29;20521;-77
2021/12/05 10:27:15;;;;;;;25.73;11.63;;;3.80;99.90;;;;;;4824669;29;20055;-77
2021/12/05 10:36:24;;;;;;;27.38;11.45;;;3.90;99.90;;;;;;4821344;29;20467;-76
2021/12/05 10:38:34;;;;;;;23.30;11.65;;;3.90;99.90;;;;;;4815358;29;20143;-76
2021/12/05 10:43:42;;;;;;;21.05;10.30;;;3.90;99.90;;;;;;4829187;29;20073;-76
2021/12/05 10:46:11;;;;;;;21.40;10.90;;;3.90;99.90;;;;;;4837537;29;20418;-76
2021/12/05 10:48:51;;;;;;;29.23;11.70;;;3.90;99.90;;;;;;4848316;29;20132;-77
2021/12/05 10:51:27;;;;;;;20.02;10.63;;;3.90;99.90;;;;;;4866992;29;20404;-76
2021/12/05 10:53:57;;;;;;;27.88;11.15;;;4.00;99.90;;;;;;4856088;29;20090;-77
2021/12/05 10:56:28;;;;;;;27.58;11.73;;;4.20;99.90;;;;;;4872787;29;20092;-77
2021/12/05 10:58:58;;;;;;;21.15;11.30;;;3.90;99.90;;;;;;4867114;29;20086;-78
2021/12/05 11:01:35;;;;;;;22.02;10.55;;;4.00;99.90;;;;;;4878470;29;20052;-81
2021/12/05 11:04:34;;;;;;;24.00;11.30;;;4.00;99.90;;;;;;4868401;29;20053;-79
2021/12/05 11:07:06;;;;;;;22.13;10.10;;;4.30;99.90;;;;;;4865574;29;20064;-75
2021/12/05 11:09:38;;;;;;;20.98;9.63;;;4.00;99.90;;;;;;4910620;29;20156;-76
2021/12/05 11:12:22;;;;;;;20.58;10.65;;;4.00;99.90;;;;;;4914190;29;20457;-76
2021/12/05 11:15:01;;;;;;;19.20;10.23;;;4.00;99.90;;;;;;4897267;29;20056;-76
2021/12/05 11:17:37;;;;;;;23.75;10.15;;;4.00;99.90;;;;;;4896476;29;20128;-76
2021/12/05 11:20:03;;;;;;;21.90;9.57;;;4.00;99.90;;;;;;4896590;29;20068;-76
2021/12/05 11:22:43;;;;;;;20.35;10.20;;;4.00;99.90;;;;;;4896097;29;20044;-76
2021/12/05 11:25:20;;;;;;;22.83;9.82;;;4.00;99.90;;;;;;4895976;29;20056;-76
2021/12/05 11:27:50;;;;;;;18.55;8.98;;;4.10;99.90;;;;;;4896654;29;20082;-76
2021/12/05 11:30:33;;;;;;;21.95;9.65;;;4.00;99.90;;;;;;4880688;29;20056;-76
2021/12/05 11:33:07;;;;;;;18.70;10.15;;;4.00;99.90;;;;;;4896319;29;20127;-77
2021/12/05 11:35:37;;;;;;;20.63;9.32;;;4.00;99.90;;;;;;4896246;29;20144;-76
2021/12/05 11:38:13;;;;;;;21.90;9.80;;;4.10;99.90;;;;;;4864529;29;20069;-76
2021/12/05 11:40:52;;;;;;;25.15;10.40;;;4.10;99.90;;;;;;4879865;29;20176;-76
2021/12/05 11:43:23;;;;;;;22.88;9.38;;;4.10;99.90;;;;;;4943271;29;20059;-76
2021/12/05 11:46:09;;;;;;;24.77;9.15;;;4.10;99.90;;;;;;4947334;29;20053;-77
2021/12/05 11:49:03;;;;;;;25.88;9.40;;;4.10;99.90;;;;;;4954903;29;20035;-77
2021/12/05 11:51:41;;;;;;;23.92;9.80;;;4.10;99.90;;;;;;4932731;29;20051;-76
2021/12/05 11:54:11;;;;;;;20.05;9.40;;;4.10;99.90;;;;;;4936651;29;20051;-77
2021/12/05 11:57:05;;;;;;;19.88;9.25;;;4.20;99.90;;;;;;4926784;29;20048;-77
2021/12/05 11:59:35;;;;;;;23.25;9.10;;;4.20;99.90;;;;;;4936317;29;20082;-78
2021/12/05 12:02:13;;;;;;;19.15;9.65;;;4.20;99.90;;;;;;4936279;29;20102;-75
2021/12/05 12:04:57;;;;;;;15.93;8.75;;;4.20;99.90;;;;;;4936174;29;20048;-77
2021/12/05 12:07:43;;;;;;;29.08;8.40;;;4.20;99.90;;;;;;4936751;29;20131;-77
2021/12/05 12:10:08;;;;;;;19.23;9.15;;;4.20;99.90;;;;;;4954446;29;20054;-76
2021/12/05 12:12:34;;;;;;;18.58;8.60;;;4.30;99.90;;;;;;4955538;28;20406;-77
2021/12/05 12:15:00;;;;;;;17.23;9.23;;;4.30;99.90;;;;;;4955543;28;20430;-77
2021/12/05 12:17:26;;;;;;;20.83;8.57;;;4.30;99.90;;;;;;4937877;28;20461;-76
2021/12/05 12:19:55;;;;;;;16.20;8.20;;;4.30;99.90;;;;;;4958162;28;20099;-78
2021/12/05 12:22:23;;;;;;;23.13;9.13;;;4.30;99.90;;;;;;4965662;28;20043;-77
2021/12/05 12:24:57;;;;;;;16.73;8.82;;;4.40;99.90;;;;;;4937542;28;20490;-77
2021/12/05 12:27:24;;;;;;;22.48;8.95;;;4.40;99.90;;;;;;4955067;28;20454;-77
2021/12/05 12:29:52;;;;;;;25.40;9.05;;;4.40;99.90;;;;;;4955498;28;20055;-76
2021/12/05 12:32:24;;;;;;;21.80;8.30;;;4.80;99.90;;;;;;4955722;28;20043;-76
2021/12/05 12:35:04;;;;;;;17.15;8.88;;;4.50;99.90;;;;;;4954975;28;20055;-77
2021/12/05 12:37:30;;;;;;;19.30;8.52;;;4.60;99.90;;;;;;4938646;28;20542;-77
2021/12/05 12:39:55;;;;;;;19.98;9.00;;;4.60;99.90;;;;;;4935636;28;20126;-74
2021/12/05 12:42:25;;;;;;;17.90;8.82;;;4.60;99.90;;;;;;4953372;28;20054;-76
2021/12/05 12:45:09;;;;;;;17.33;8.02;;;4.80;99.90;;;;;;4955478;28;20039;-76
2021/12/05 12:47:40;;;;;;;24.63;8.95;;;4.70;99.90;;;;;;4954685;28;20047;-77
2021/12/05 12:50:23;;;;;;;18.23;8.60;;;4.80;99.90;;;;;;4936779;29;20533;-77
2021/12/05 12:52:56;;;;;;;20.40;8.90;;;4.80;99.90;;;;;;4957421;28;20127;-75
2021/12/05 12:55:27;;;;;;;20.65;8.25;;;4.80;99.90;;;;;;4962857;28;20344;-77
2021/12/05 12:57:53;;;;;;;21.05;8.35;;;4.90;99.90;;;;;;4954565;29;20068;-77
2021/12/05 13:00:23;;;;;;;20.23;8.05;;;4.90;99.90;;;;;;4937344;29;20090;-76
2021/12/05 13:11:12;;;;;;;17.95;7.88;;;5.00;99.90;;;;;;4956576;28;20507;-77
2021/12/05 13:13:41;;;;;;;24.70;7.88;;;5.00;99.90;;;;;;4970987;28;20047;-77
2021/12/05 13:16:19;;;;;;;17.17;7.65;;;5.00;99.90;;;;;;4944323;28;20043;-76
2021/12/05 13:18:49;;;;;;;16.67;7.95;;;5.00;99.90;;;;;;4936330;28;20055;-76
2021/12/05 13:21:38;;;;;;;20.73;8.60;;;5.00;99.90;;;;;;4929338;29;20774;-76
2021/12/05 13:24:34;;;;;;;18.48;8.07;;;5.00;99.90;;;;;;4955980;28;20039;-76
2021/12/05 13:27:06;;;;;;;14.18;7.85;;;5.10;99.90;;;;;;4963441;28;20047;-77
2021/12/05 13:29:46;;;;;;;16.85;7.93;;;5.10;99.90;;;;;;4954007;28;20047;-76
2021/12/05 13:32:25;;;;;;;15.93;7.60;;;5.60;99.90;;;;;;4961386;28;20053;-76
2021/12/05 13:35:00;;;;;;;20.63;8.18;;;5.20;99.90;;;;;;4954095;28;20047;-77
2021/12/05 13:37:29;;;;;;;;;;;5.20;99.90;;;;;;4954990;28;20136;-76
2021/12/05 13:40:08;;;;;;;18.52;8.05;;;5.10;99.90;;;;;;4945865;29;20046;-77
2021/12/05 13:42:34;;;;;;;16.75;8.20;;;5.20;99.90;;;;;;4953757;29;20047;-76
2021/12/05 13:45:00;;;;;;;19.10;8.20;;;5.20;99.90;;;;;;4966656;28;20054;-77
2021/12/05 13:47:29;;;;;;;13.95;7.90;;;5.20;99.90;;;;;;4960175;28;20055;-77
2021/12/05 13:53:03;;;;;;;17.05;7.53;;;5.20;99.90;;;;;;4942958;29;20067;-75
2021/12/05 13:55:39;;;;;;;18.83;8.52;;;5.20;99.90;;;;;;4953798;28;20052;-77
2021/12/05 13:58:14;;;;;;;16.30;7.80;;;5.20;99.90;;;;;;4936478;29;20047;-75
2021/12/05 14:00:42;;;;;;;18.45;8.13;;;5.20;99.90;;;;;;4953483;28;20094;-76
2021/12/05 14:03:07;;;;;;;14.43;8.48;;;5.20;99.90;;;;;;4966594;28;20051;-76
2021/12/05 14:05:33;;;;;;;19.45;8.30;;;5.20;99.90;;;;;;4972812;28;20039;-77
2021/12/05 14:07:59;;;;;;;18.10;8.40;;;5.20;99.90;;;;;;4972570;28;20082;-77
2021/12/05 14:10:25;;;;;;;15.68;8.35;;;5.10;99.90;;;;;;4972784;28;20046;-76
2021/12/05 14:12:51;;;;;;;25.23;14.80;;;5.10;99.90;;;;;;4955923;28;20051;-76
2021/12/05 14:15:16;;;;;;;22.23;11.30;;;5.10;99.90;;;;;;4972845;28;20086;-75
2021/12/05 14:17:45;;;;;;;23.23;10.98;;;5.10;99.90;;;;;;4972756;28;20067;-75
2021/12/05 14:20:14;;;;;;;16.92;8.65;;;5.10;99.90;;;;;;4972828;28;20113;-75
2021/12/05 14:22:45;;;;;;;20.27;8.48;;;5.10;99.90;;;;;;4972369;28;20043;-76
2021/12/05 14:25:24;;;;;;;18.00;8.57;;;5.10;99.90;;;;;;4972850;28;20126;-76
2021/12/05 14:27:58;;;;;;;17.55;8.48;;;5.00;99.90;;;;;;4972713;28;20121;-75
2021/12/05 14:30:29;;;;;;;13.98;8.60;;;5.00;99.90;;;;;;4956856;28;20119;-77
2021/12/05 14:32:58;;;;;;;16.80;9.13;;;5.00;99.90;;;;;;4976389;28;20500;-77
2021/12/05 14:35:37;;;;;;;20.52;8.40;;;5.20;99.90;;;;;;4976654;28;20406;-76
2021/12/05 14:38:06;;;;;;;16.45;8.20;;;5.00;99.90;;;;;;4959169;28;20059;-75
2021/12/05 14:40:34;;;;;;;19.88;9.65;;;5.00;99.90;;;;;;4976381;28;20113;-75
2021/12/05 14:43:07;;;;;;;16.15;8.25;;;4.90;99.90;;;;;;4976072;28;20046;-75
2021/12/05 14:45:37;;;;;;;16.05;9.02;;;4.90;99.90;;;;;;4976172;28;20050;-76
2021/12/05 14:48:10;;;;;;;18.33;8.52;;;4.90;99.90;;;;;;4976442;28;20050;-77
2021/12/05 14:50:36;;;;;;;18.02;9.30;;;4.90;99.90;;;;;;4976254;28;20418;-76
2021/12/05 14:53:06;;;;;;;17.17;8.10;;;4.90;99.90;;;;;;4976193;28;20078;-76
2021/12/05 14:55:34;;;;;;;18.35;8.60;;;4.80;99.90;;;;;;4975980;28;20397;-76
2021/12/05 14:58:09;;;;;;;17.40;8.15;;;4.90;99.90;;;;;;4975799;28;20097;-76
2021/12/05 15:00:42;;;;;;;15.18;7.72;;;5.20;99.90;;;;;;4975868;28;20047;-76
2021/12/05 15:03:13;;;;;;;14.40;8.32;;;4.80;99.90;;;;;;4975987;28;20050;-76
2021/12/05 15:05:43;;;;;;;17.88;8.98;;;4.80;99.90;;;;;;4975880;28;20458;-76
2021/12/05 15:08:15;;;;;;;19.10;9.60;;;4.80;99.90;;;;;;4958598;28;20046;-76
2021/12/05 15:10:42;;;;;;;21.48;11.05;;;4.80;99.90;;;;;;4975058;28;20520;-75
2021/12/05 15:13:09;;;;;;;22.17;10.52;;;4.70;99.90;;;;;;4975925;28;20051;-76
2021/12/05 15:15:36;;;;;;;18.80;10.20;;;4.80;99.90;;;;;;4975914;28;20082;-76
2021/12/05 15:18:04;;;;;;;18.23;10.55;;;4.80;99.90;;;;;;4975733;28;20070;-77
2021/12/05 15:20:33;;;;;;;18.58;9.25;;;4.80;99.90;;;;;;4975554;28;20537;-77
2021/12/05 15:23:05;;;;;;;16.67;9.05;;;4.70;99.90;;;;;;4975594;28;20520;-76
2021/12/05 15:25:33;;;;;;;19.45;10.20;;;4.70;99.90;;;;;;4974925;28;20055;-76
2021/12/05 15:27:59;;;;;;;23.35;9.63;;;4.70;99.90;;;;;;4975809;28;20070;-76
2021/12/05 15:30:27;;;;;;;20.58;9.18;;;4.70;99.90;;;;;;4975668;28;20405;-77
2021/12/05 15:32:58;;;;;;;16.60;9.07;;;4.70;99.90;;;;;;4975768;28;20122;-75
2021/12/05 15:35:25;;;;;;;18.30;9.18;;;4.70;99.90;;;;;;4958422;28;20144;-76
2021/12/05 15:37:54;;;;;;;22.90;9.77;;;4.70;99.90;;;;;;4958503;28;20122;-76
2021/12/05 15:40:22;;;;;;;27.83;10.43;;;4.70;99.90;;;;;;4957600;28;20137;-76
2021/12/05 15:42:49;;;;;;;26.65;11.38;;;4.70;99.90;;;;;;4975306;28;20053;-76
2021/12/05 15:45:17;;;;;;;20.15;11.35;;;4.60;99.90;;;;;;4975357;28;20051;-75
2021/12/05 15:47:45;;;;;;;21.92;11.75;;;4.60;99.90;;;;;;4975298;28;20039;-75
2021/12/05 15:50:18;;;;;;;25.00;12.43;;;4.60;99.90;;;;;;4975034;28;20051;-76
2021/12/05 15:52:57;;;;;;;23.15;11.98;;;4.60;99.90;;;;;;4974818;28;20517;-76
2021/12/05 15:55:29;;;;;;;27.15;12.02;;;4.60;99.90;;;;;;4975119;28;20531;-75
2021/12/05 15:58:09;;;;;;;21.73;12.20;;;4.60;99.90;;;;;;4974861;28;20051;-77
2021/12/05 16:00:42;;;;;;;28.00;15.73;;;4.60;99.90;;;;;;4975086;28;20173;-76
2021/12/05 16:03:09;;;;;;;26.33;12.35;;;4.50;99.90;;;;;;4974850;28;20051;-76
2021/12/05 16:05:37;;;;;;;24.73;13.13;;;4.50;99.90;;;;;;4957310;28;20502;-76
2021/12/05 16:08:15;;;;;;;29.30;13.32;;;4.50;99.90;;;;;;4974750;28;20625;-75
2021/12/05 16:10:44;;;;;;;23.20;12.27;;;4.50;99.90;;;;;;4957255;28;20063;-76
2021/12/05 16:13:15;;;;;;;24.13;13.15;;;4.50;99.90;;;;;;4957033;28;20562;-75
2021/12/05 16:15:44;;;;;;;24.60;12.40;;;4.50;99.90;;;;;;4957576;28;20055;-76
2021/12/05 16:18:10;;;;;;;23.23;12.15;;;4.50;99.90;;;;;;4974479;28;20487;-75
2021/12/05 16:20:45;;;;;;;29.35;12.60;;;4.50;99.90;;;;;;4974510;28;20054;-75
2021/12/05 16:23:30;;;;;;;24.17;12.38;;;4.50;99.90;;;;;;4974709;28;20039;-76
2021/12/05 16:26:09;;;;;;;28.08;12.43;;;4.50;99.90;;;;;;4974469;28;20047;-76
2021/12/05 16:28:37;;;;;;;26.88;12.05;;;4.40;99.90;;;;;;4973959;28;20049;-76
2021/12/05 16:31:12;;;;;;;25.73;13.50;;;4.40;99.90;;;;;;4974178;28;20494;-78
2021/12/05 16:33:38;;;;;;;28.38;13.68;;;4.40;99.90;;;;;;4974318;28;20473;-76
2021/12/05 16:36:06;;;;;;;27.67;13.27;;;4.40;99.90;;;;;;4974249;28;20047;-76
2021/12/05 16:38:39;;;;;;;30.20;14.07;;;4.80;99.90;;;;;;4956760;28;20043;-75
2021/12/05 16:41:14;;;;;;;27.45;13.98;;;4.40;99.90;;;;;;4973981;28;20051;-76
2021/12/05 16:43:53;;;;;;;27.17;13.32;;;4.40;99.90;;;;;;4973837;28;20049;-75
2021/12/05 16:46:23;;;;;;;27.75;13.65;;;4.40;99.90;;;;;;4974153;28;20133;-76
2021/12/05 16:48:50;;;;;;;25.42;13.40;;;4.40;99.90;;;;;;4973998;28;20046;-75
2021/12/05 16:51:33;;;;;;;31.13;15.48;;;4.40;99.90;;;;;;4973865;28;20162;-75
2021/12/05 16:54:10;;;;;;;30.45;15.30;;;4.30;99.90;;;;;;4973036;28;20056;-76
2021/12/05 16:56:43;;;;;;;28.13;14.63;;;4.40;99.90;;;;;;4973903;28;20051;-76
2021/12/05 16:59:14;;;;;;;32.45;16.58;;;4.40;99.90;;;;;;4973460;28;20074;-76
2021/12/05 17:01:40;;;;;;;36.28;17.23;;;4.90;99.90;;;;;;4973779;28;20053;-75
2021/12/05 17:04:06;;;;;;;28.00;15.15;;;4.30;99.90;;;;;;4956477;28;20137;-76
2021/12/05 17:06:48;;;;;;;32.67;16.20;;;4.30;99.90;;;;;;4973611;28;20124;-76
2021/12/05 17:09:14;;;;;;;35.58;16.50;;;4.50;99.90;;;;;;4973749;28;20046;-75
2021/12/05 17:11:40;;;;;;;35.70;17.88;;;4.30;99.90;;;;;;4973539;28;20054;-75
2021/12/05 17:14:05;;;;;;;37.42;20.10;;;4.30;99.90;;;;;;4973350;28;20090;-75
2021/12/05 17:16:32;;;;;;;38.13;19.77;;;4.30;99.90;;;;;;4973430;28;20066;-76
2021/12/05 17:19:08;;;;;;;42.60;21.67;;;4.40;99.90;;;;;;4973328;28;20059;-76
2021/12/05 17:21:40;;;;;;;42.13;20.83;;;4.30;99.90;;;;;;4973736;28;20138;-76
2021/12/05 17:24:12;;;;;;;42.70;21.35;;;4.30;99.90;;;;;;4973368;28;20565;-78
2021/12/05 17:26:39;;;;;;;44.13;21.08;;;4.50;99.90;;;;;;4956042;28;20050;-76
2021/12/05 17:29:07;;;;;;;43.20;21.38;;;4.30;99.90;;;;;;4956055;28;20137;-76
2021/12/05 17:31:38;;;;;;;41.92;21.42;;;4.30;99.90;;;;;;4973096;28;20047;-76
2021/12/05 17:34:12;;;;;;;40.80;22.27;;;4.30;99.90;;;;;;4973282;28;20042;-77
2021/12/05 17:36:42;;;;;;;40.92;21.50;;;4.30;99.90;;;;;;4973326;28;20130;-76
2021/12/05 17:39:17;;;;;;;40.40;22.17;;;4.30;99.90;;;;;;4955612;28;20055;-77
2021/12/05 17:41:44;;;;;;;;;;;4.30;99.90;;;;;;4973690;28;20051;-76
2021/12/05 17:44:11;;;;;;;41.90;22.90;;;4.30;99.90;;;;;;4972888;28;20350;-76
2021/12/05 17:46:38;;;;;;;44.60;23.70;;;4.50;99.90;;;;;;4955449;28;20059;-76
2021/12/05 17:49:07;;;;;;;43.42;23.17;;;4.30;99.90;;;;;;4973133;28;20042;-76
2021/12/05 17:51:37;;;;;;;39.70;21.77;;;4.30;99.90;;;;;;4956054;28;20055;-76
2021/12/05 17:54:05;;;;;;;39.38;21.67;;;4.30;99.90;;;;;;4973122;28;20039;-77
2021/12/05 17:56:41;;;;;;;33.78;20.30;;;4.30;99.90;;;;;;4973047;28;20051;-76
2021/12/05 17:59:13;;;;;;;31.73;18.67;;;4.20;99.90;;;;;;4955593;28;20050;-76
2021/12/05 18:04:31;;;;;;;29.50;17.27;;;4.20;99.90;;;;;;4974722;28;20055;-76
2021/12/05 18:06:58;;;;;;;30.13;17.42;;;4.10;99.90;;;;;;4959875;28;20483;-76
2021/12/05 18:09:24;;;;;;;29.83;16.60;;;4.30;99.90;;;;;;4959714;28;20097;-74
2021/12/05 18:11:51;;;;;;;28.67;16.90;;;4.10;99.90;;;;;;4976812;28;20065;-76
2021/12/05 18:14:16;;;;;;;29.55;16.10;;;4.10;99.90;;;;;;4976870;28;20059;-75
2021/12/05 18:16:42;;;;;;;29.05;16.20;;;4.10;99.90;;;;;;4976741;28;20035;-75
2021/12/05 18:19:13;;;;;;;28.10;15.18;;;4.10;99.90;;;;;;4959169;28;20050;-75
2021/12/05 18:21:40;;;;;;;26.38;15.48;;;4.00;99.90;;;;;;4976781;28;20078;-76
2021/12/05 18:24:10;;;;;;;26.73;15.27;;;4.50;99.90;;;;;;4976641;28;20695;-76
2021/12/05 18:26:38;;;;;;;24.10;13.70;;;4.00;99.90;;;;;;4976672;28;20086;-76
2021/12/05 18:29:06;;;;;;;23.50;14.00;;;3.90;99.90;;;;;;4976756;28;20055;-75
2021/12/05 18:31:34;;;;;;;24.80;14.82;;;3.90;99.90;;;;;;4976195;28;20047;-76
2021/12/05 18:34:13;;;;;;;27.63;15.25;;;3.90;99.90;;;;;;4958992;28;20121;-74